sensor_id;sensor_type;location;lat;lon;timestamp;temperature;humidity
37646;DHT22;23489;49.600;6.138;2023-03-14T00:02:20;9.70;99.90
37646;DHT22;23489;49.600;6.138;2023-03-14T00:04:46;9.70;99.90
37646;DHT22;23489;49.600;6.138;2023-03-14T00:07:12;9.70;99.90
37646;DHT22;23489;49.600;6.138;2023-03-14T00:09:38;9.70;99.90
37646;DHT22;23489;49.600;6.138;2023-03-14T00:12:04;9.60;99.90
37646;DHT22;23489;49.600;6.138;2023-03-14T00:14:31;9.60;99.90
37646;DHT22;23489;49.600;6.138;2023-03-14T00:16:57;9.60;99.90
37646;DHT22;23489;49.600;6.138;2023-03-14T00:19:22;9.50;99.90
37646;DHT22;23489;49.600;6.138;2023-03-14T00:21:48;9.50;99.90
37646;DHT22;23489;49.600;6.138;2023-03-14T00:24:14;9.50;99.90
37646;DHT22;23489;49.600;6.138;2023-03-14T00:26:39;9.50;99.90
37646;DHT22;23489;49.600;6.138;2023-03-14T00:29:05;9.50;99.90
37646;DHT22;23489;49.600;6.138;2023-03-14T00:31:31;9.50;99.90
37646;DHT22;23489;49.600;6.138;2023-03-14T00:33:57;9.50;99.90
37646;DHT22;23489;49.600;6.138;2023-03-14T00:36:24;9.40;99.90
37646;DHT22;23489;49.600;6.138;2023-03-14T00:38:51;9.40;99.90
37646;DHT22;23489;49.600;6.138;2023-03-14T00:41:19;9.40;99.90
37646;DHT22;23489;49.600;6.138;2023-03-14T00:43:46;9.50;99.90
37646;DHT22;23489;49.600;6.138;2023-03-14T00:46:12;9.50;99.90
37646;DHT22;23489;49.600;6.138;2023-03-14T00:48:38;9.50;99.90
37646;DHT22;23489;49.600;6.138;2023-03-14T00:51:05;9.50;99.90
37646;DHT22;23489;49.600;6.138;2023-03-14T00:53:32;9.50;99.90
37646;DHT22;23489;49.600;6.138;2023-03-14T00:56:06;9.60;99.90
37646;DHT22;23489;49.600;6.138;2023-03-14T00:58:33;9.60;99.90
37646;DHT22;23489;49.600;6.138;2023-03-14T01:00:58;9.50;99.90
37646;DHT22;23489;49.600;6.138;2023-03-14T01:03:24;9.60;99.90
37646;DHT22;23489;49.600;6.138;2023-03-14T01:05:50;9.50;99.90
37646;DHT22;23489;49.600;6.138;2023-03-14T01:08:16;9.50;99.90
37646;DHT22;23489;49.600;6.138;2023-03-14T01:10:42;9.50;99.90
37646;DHT22;23489;49.600;6.138;2023-03-14T01:13:08;9.50;99.90
37646;DHT22;23489;49.600;6.138;2023-03-14T01:15:36;9.50;99.90
37646;DHT22;23489;49.600;6.138;2023-03-14T01:18:02;9.40;99.90
37646;DHT22;23489;49.600;6.138;2023-03-14T01:20:28;9.40;99.90
37646;DHT22;23489;49.600;6.138;2023-03-14T01:22:54;9.40;99.90
37646;DHT22;23489;49.600;6.138;2023-03-14T01:25:20;9.30;99.90
37646;DHT22;23489;49.600;6.138;2023-03-14T01:27:46;9.40;99.90
37646;DHT22;23489;49.600;6.138;2023-03-14T01:30:12;9.30;99.90
37646;DHT22;23489;49.600;6.138;2023-03-14T01:32:39;9.30;99.90
37646;DHT22;23489;49.600;6.138;2023-03-14T01:35:05;9.30;99.90
37646;DHT22;23489;49.600;6.138;2023-03-14T01:37:31;9.30;99.90
37646;DHT22;23489;49.600;6.138;2023-03-14T01:39:57;9.30;99.90
37646;DHT22;23489;49.600;6.138;2023-03-14T01:42:23;9.30;99.90
37646;DHT22;23489;49.600;6.138;2023-03-14T01:44:55;9.30;99.90
37646;DHT22;23489;49.600;6.138;2023-03-14T01:47:22;9.30;99.90
37646;DHT22;23489;49.600;6.138;2023-03-14T01:49:58;9.20;99.90
37646;DHT22;23489;49.600;6.138;2023-03-14T01:52:31;9.20;99.90
37646;DHT22;23489;49.600;6.138;2023-03-14T01:55:03;9.10;99.90
37646;DHT22;23489;49.600;6.138;2023-03-14T01:57:41;9.10;99.90
37646;DHT22;23489;49.600;6.138;2023-03-14T02:00:15;9.00;99.90
37646;DHT22;23489;49.600;6.138;2023-03-14T02:02:48;9.00;99.90
37646;DHT22;23489;49.600;6.138;2023-03-14T02:05:23;9.00;99.90
37646;DHT22;23489;49.600;6.138;2023-03-14T02:07:59;8.90;99.90
37646;DHT22;23489;49.600;6.138;2023-03-14T02:10:32;8.80;99.90
37646;DHT22;23489;49.600;6.138;2023-03-14T02:13:03;8.80;99.90
37646;DHT22;23489;49.600;6.138;2023-03-14T02:15:37;8.80;99.90
37646;DHT22;23489;49.600;6.138;2023-03-14T02:18:11;8.70;99.90
37646;DHT22;23489;49.600;6.138;2023-03-14T02:21:16;8.70;99.90
37646;DHT22;23489;49.600;6.138;2023-03-14T02:24:17;8.70;99.90
37646;DHT22;23489;49.600;6.138;2023-03-14T02:29:44;8.60;99.90
37646;DHT22;23489;49.600;6.138;2023-03-14T02:32:11;8.60;99.90
37646;DHT22;23489;49.600;6.138;2023-03-14T02:34:40;8.50;99.90
37646;DHT22;23489;49.600;6.138;2023-03-14T02:37:09;8.50;99.90
37646;DHT22;23489;49.600;6.138;2023-03-14T02:39:38;8.50;99.90
37646;DHT22;23489;49.600;6.138;2023-03-14T02:42:06;8.50;99.90
37646;DHT22;23489;49.600;6.138;2023-03-14T02:44:32;8.50;99.90
37646;DHT22;23489;49.600;6.138;2023-03-14T02:46:59;8.50;99.90
37646;DHT22;23489;49.600;6.138;2023-03-14T02:49:26;8.50;99.90
37646;DHT22;23489;49.600;6.138;2023-03-14T02:51:52;8.40;99.90
37646;DHT22;23489;49.600;6.138;2023-03-14T02:54:19;8.40;99.90
37646;DHT22;23489;49.600;6.138;2023-03-14T02:56:46;8.30;99.90
37646;DHT22;23489;49.600;6.138;2023-03-14T02:59:12;8.30;99.90
37646;DHT22;23489;49.600;6.138;2023-03-14T03:01:44;8.30;99.90
37646;DHT22;23489;49.600;6.138;2023-03-14T03:04:10;8.40;99.90
37646;DHT22;23489;49.600;6.138;2023-03-14T03:06:36;8.30;99.90
37646;DHT22;23489;49.600;6.138;2023-03-14T03:09:02;8.30;99.90
37646;DHT22;23489;49.600;6.138;2023-03-14T03:11:27;8.30;99.90
37646;DHT22;23489;49.600;6.138;2023-03-14T03:13:53;8.40;99.90
37646;DHT22;23489;49.600;6.138;2023-03-14T03:16:19;8.30;99.90
37646;DHT22;23489;49.600;6.138;2023-03-14T03:18:45;8.30;99.90
37646;DHT22;23489;49.600;6.138;2023-03-14T03:21:11;8.30;99.90
37646;DHT22;23489;49.600;6.138;2023-03-14T03:23:36;8.30;99.90
37646;DHT22;23489;49.600;6.138;2023-03-14T03:26:05;8.30;99.90
37646;DHT22;23489;49.600;6.138;2023-03-14T03:28:30;8.30;99.90
37646;DHT22;23489;49.600;6.138;2023-03-14T03:30:57;8.30;99.90
37646;DHT22;23489;49.600;6.138;2023-03-14T03:33:23;8.30;99.90
37646;DHT22;23489;49.600;6.138;2023-03-14T03:35:51;8.30;99.90
37646;DHT22;23489;49.600;6.138;2023-03-14T03:38:29;8.30;99.90
37646;DHT22;23489;49.600;6.138;2023-03-14T03:40:55;8.30;99.90
37646;DHT22;23489;49.600;6.138;2023-03-14T03:43:24;8.20;99.90
37646;DHT22;23489;49.600;6.138;2023-03-14T03:45:50;8.20;99.90
37646;DHT22;23489;49.600;6.138;2023-03-14T03:48:15;8.20;99.90
37646;DHT22;23489;49.600;6.138;2023-03-14T03:50:45;8.20;99.90
37646;DHT22;23489;49.600;6.138;2023-03-14T03:53:12;8.20;99.90
37646;DHT22;23489;49.600;6.138;2023-03-14T03:55:41;8.20;99.90
37646;DHT22;23489;49.600;6.138;2023-03-14T03:58:08;8.20;99.90
37646;DHT22;23489;49.600;6.138;2023-03-14T04:00:33;8.10;99.90
37646;DHT22;23489;49.600;6.138;2023-03-14T04:02:59;8.10;99.90
37646;DHT22;23489;49.600;6.138;2023-03-14T04:05:26;8.10;99.90
37646;DHT22;23489;49.600;6.138;2023-03-14T04:07:57;8.10;99.90
37646;DHT22;23489;49.600;6.138;2023-03-14T04:10:25;8.10;99.90
37646;DHT22;23489;49.600;6.138;2023-03-14T04:13:24;8.10;99.90
37646;DHT22;23489;49.600;6.138;2023-03-14T04:15:52;8.10;99.90
37646;DHT22;23489;49.600;6.138;2023-03-14T04:18:23;8.10;99.90
37646;DHT22;23489;49.600;6.138;2023-03-14T04:20:57;8.10;99.90
37646;DHT22;23489;49.600;6.138;2023-03-14T04:23:29;8.10;99.90
37646;DHT22;23489;49.600;6.138;2023-03-14T04:25:55;8.10;99.90
37646;DHT22;23489;49.600;6.138;2023-03-14T04:28:22;8.10;99.90
37646;DHT22;23489;49.600;6.138;2023-03-14T04:30:48;8.10;99.90
37646;DHT22;23489;49.600;6.138;2023-03-14T04:33:19;8.10;99.90
37646;DHT22;23489;49.600;6.138;2023-03-14T04:35:53;8.10;99.90
37646;DHT22;23489;49.600;6.138;2023-03-14T04:38:19;8.10;99.90
37646;DHT22;23489;49.600;6.138;2023-03-14T04:40:46;8.10;99.90
37646;DHT22;23489;49.600;6.138;2023-03-14T04:43:13;8.20;99.90
37646;DHT22;23489;49.600;6.138;2023-03-14T04:45:46;8.20;99.90
37646;DHT22;23489;49.600;6.138;2023-03-14T04:48:11;8.10;99.90
37646;DHT22;23489;49.600;6.138;2023-03-14T04:50:38;8.10;99.90
37646;DHT22;23489;49.600;6.138;2023-03-14T04:53:05;8.20;99.90
37646;DHT22;23489;49.600;6.138;2023-03-14T04:55:31;8.20;99.90
37646;DHT22;23489;49.600;6.138;2023-03-14T04:57:58;8.20;99.90
37646;DHT22;23489;49.600;6.138;2023-03-14T05:00:25;8.20;99.90
37646;DHT22;23489;49.600;6.138;2023-03-14T05:02:59;8.20;99.90
37646;DHT22;23489;49.600;6.138;2023-03-14T05:05:33;8.20;99.90
37646;DHT22;23489;49.600;6.138;2023-03-14T05:08:08;8.10;99.90
37646;DHT22;23489;49.600;6.138;2023-03-14T05:11:12;8.20;99.90
37646;DHT22;23489;49.600;6.138;2023-03-14T05:14:01;8.10;99.90
37646;DHT22;23489;49.600;6.138;2023-03-14T05:16:43;8.20;99.90
37646;DHT22;23489;49.600;6.138;2023-03-14T05:19:47;8.20;99.90
37646;DHT22;23489;49.600;6.138;2023-03-14T05:22:33;8.20;99.90
37646;DHT22;23489;49.600;6.138;2023-03-14T05:25:27;8.10;99.90
37646;DHT22;23489;49.600;6.138;2023-03-14T05:28:16;8.10;99.90
37646;DHT22;23489;49.600;6.138;2023-03-14T05:30:57;8.10;99.90
37646;DHT22;23489;49.600;6.138;2023-03-14T05:33:44;8.10;99.90
37646;DHT22;23489;49.600;6.138;2023-03-14T05:36:17;8.10;99.90
37646;DHT22;23489;49.600;6.138;2023-03-14T05:39:15;8.10;99.90
37646;DHT22;23489;49.600;6.138;2023-03-14T05:41:54;8.10;99.90
37646;DHT22;23489;49.600;6.138;2023-03-14T05:44:31;8.10;99.90
37646;DHT22;23489;49.600;6.138;2023-03-14T05:47:14;8.10;99.90
37646;DHT22;23489;49.600;6.138;2023-03-14T05:50:05;8.10;99.90
37646;DHT22;23489;49.600;6.138;2023-03-14T05:52:50;8.10;99.90
37646;DHT22;23489;49.600;6.138;2023-03-14T05:55:39;8.10;99.90
37646;DHT22;23489;49.600;6.138;2023-03-14T05:58:20;8.10;99.90
37646;DHT22;23489;49.600;6.138;2023-03-14T06:01:07;8.10;99.90
37646;DHT22;23489;49.600;6.138;2023-03-14T06:03:51;8.10;99.90
37646;DHT22;23489;49.600;6.138;2023-03-14T06:06:17;8.20;99.90
37646;DHT22;23489;49.600;6.138;2023-03-14T06:08:42;8.20;99.90
37646;DHT22;23489;49.600;6.138;2023-03-14T06:11:10;8.10;99.90
37646;DHT22;23489;49.600;6.138;2023-03-14T06:13:35;8.20;99.90
37646;DHT22;23489;49.600;6.138;2023-03-14T06:16:01;8.30;99.90
37646;DHT22;23489;49.600;6.138;2023-03-14T06:18:27;8.30;99.90
37646;DHT22;23489;49.600;6.138;2023-03-14T06:20:55;8.30;99.90
37646;DHT22;23489;49.600;6.138;2023-03-14T06:23:25;8.30;99.90
37646;DHT22;23489;49.600;6.138;2023-03-14T06:25:51;8.30;99.90
37646;DHT22;23489;49.600;6.138;2023-03-14T06:28:17;8.30;99.90
37646;DHT22;23489;49.600;6.138;2023-03-14T06:30:43;8.30;99.90
37646;DHT22;23489;49.600;6.138;2023-03-14T06:33:10;8.40;99.90
37646;DHT22;23489;49.600;6.138;2023-03-14T06:35:36;8.40;99.90
37646;DHT22;23489;49.600;6.138;2023-03-14T06:38:02;8.40;99.90
37646;DHT22;23489;49.600;6.138;2023-03-14T06:40:29;8.40;99.90
37646;DHT22;23489;49.600;6.138;2023-03-14T06:42:59;8.40;99.90
37646;DHT22;23489;49.600;6.138;2023-03-14T06:45:27;8.40;99.90
37646;DHT22;23489;49.600;6.138;2023-03-14T06:47:54;8.50;99.90
37646;DHT22;23489;49.600;6.138;2023-03-14T06:50:25;8.40;99.90
37646;DHT22;23489;49.600;6.138;2023-03-14T06:52:50;8.50;99.90
37646;DHT22;23489;49.600;6.138;2023-03-14T06:55:20;8.50;99.90
37646;DHT22;23489;49.600;6.138;2023-03-14T06:57:46;8.50;99.90
37646;DHT22;23489;49.600;6.138;2023-03-14T07:00:13;8.50;99.90
37646;DHT22;23489;49.600;6.138;2023-03-14T07:02:39;8.50;99.90
37646;DHT22;23489;49.600;6.138;2023-03-14T07:05:06;8.50;99.90
37646;DHT22;23489;49.600;6.138;2023-03-14T07:07:33;8.60;99.90
37646;DHT22;23489;49.600;6.138;2023-03-14T07:09:59;8.60;99.90
37646;DHT22;23489;49.600;6.138;2023-03-14T07:12:27;8.80;99.90
37646;DHT22;23489;49.600;6.138;2023-03-14T07:14:53;8.80;99.90
37646;DHT22;23489;49.600;6.138;2023-03-14T07:17:19;8.90;99.90
37646;DHT22;23489;49.600;6.138;2023-03-14T07:19:45;9.10;99.90
37646;DHT22;23489;49.600;6.138;2023-03-14T07:22:10;9.30;99.90
37646;DHT22;23489;49.600;6.138;2023-03-14T07:24:36;9.30;99.90
37646;DHT22;23489;49.600;6.138;2023-03-14T07:27:03;9.30;99.90
37646;DHT22;23489;49.600;6.138;2023-03-14T07:29:28;9.30;99.90
37646;DHT22;23489;49.600;6.138;2023-03-14T07:31:54;9.30;99.90
37646;DHT22;23489;49.600;6.138;2023-03-14T07:34:20;9.20;99.90
37646;DHT22;23489;49.600;6.138;2023-03-14T07:36:46;9.20;99.90
37646;DHT22;23489;49.600;6.138;2023-03-14T07:39:12;9.20;99.90
37646;DHT22;23489;49.600;6.138;2023-03-14T07:41:37;9.10;99.90
37646;DHT22;23489;49.600;6.138;2023-03-14T07:44:23;9.10;99.90
37646;DHT22;23489;49.600;6.138;2023-03-14T07:46:49;9.10;99.90
37646;DHT22;23489;49.600;6.138;2023-03-14T07:49:14;9.10;99.90
37646;DHT22;23489;49.600;6.138;2023-03-14T07:51:40;9.10;99.90
37646;DHT22;23489;49.600;6.138;2023-03-14T07:54:06;9.10;99.90
37646;DHT22;23489;49.600;6.138;2023-03-14T07:56:31;9.10;99.90
37646;DHT22;23489;49.600;6.138;2023-03-14T07:58:57;9.10;99.90
37646;DHT22;23489;49.600;6.138;2023-03-14T08:01:22;9.10;99.90
37646;DHT22;23489;49.600;6.138;2023-03-14T08:03:48;9.10;99.90
37646;DHT22;23489;49.600;6.138;2023-03-14T08:06:14;9.10;99.90
37646;DHT22;23489;49.600;6.138;2023-03-14T08:08:39;9.20;99.90
37646;DHT22;23489;49.600;6.138;2023-03-14T08:11:07;9.10;99.90
37646;DHT22;23489;49.600;6.138;2023-03-14T08:13:39;9.10;99.90
37646;DHT22;23489;49.600;6.138;2023-03-14T08:16:05;9.10;99.90
37646;DHT22;23489;49.600;6.138;2023-03-14T08:18:31;9.10;99.90
37646;DHT22;23489;49.600;6.138;2023-03-14T08:20:57;9.10;99.90
37646;DHT22;23489;49.600;6.138;2023-03-14T08:23:23;9.00;99.90
37646;DHT22;23489;49.600;6.138;2023-03-14T08:25:49;9.10;99.90
37646;DHT22;23489;49.600;6.138;2023-03-14T08:28:16;9.10;99.90
37646;DHT22;23489;49.600;6.138;2023-03-14T08:30:41;9.10;99.90
37646;DHT22;23489;49.600;6.138;2023-03-14T08:33:07;9.20;99.90
37646;DHT22;23489;49.600;6.138;2023-03-14T08:35:33;9.20;99.90
37646;DHT22;23489;49.600;6.138;2023-03-14T08:37:59;9.20;99.90
37646;DHT22;23489;49.600;6.138;2023-03-14T08:40:24;9.20;99.90
37646;DHT22;23489;49.600;6.138;2023-03-14T08:42:50;9.20;99.90
37646;DHT22;23489;49.600;6.138;2023-03-14T08:45:16;9.20;99.90
37646;DHT22;23489;49.600;6.138;2023-03-14T08:47:43;9.20;99.90
37646;DHT22;23489;49.600;6.138;2023-03-14T08:50:10;9.30;99.90
37646;DHT22;23489;49.600;6.138;2023-03-14T08:52:36;9.50;99.90
37646;DHT22;23489;49.600;6.138;2023-03-14T08:55:04;9.60;99.90
37646;DHT22;23489;49.600;6.138;2023-03-14T08:57:30;9.70;99.90
37646;DHT22;23489;49.600;6.138;2023-03-14T08:59:56;9.80;99.90
37646;DHT22;23489;49.600;6.138;2023-03-14T09:02:24;9.80;99.90
37646;DHT22;23489;49.600;6.138;2023-03-14T09:04:50;9.80;99.90
37646;DHT22;23489;49.600;6.138;2023-03-14T09:07:16;9.70;99.90
37646;DHT22;23489;49.600;6.138;2023-03-14T09:09:42;9.60;99.90
37646;DHT22;23489;49.600;6.138;2023-03-14T09:12:08;9.50;99.90
37646;DHT22;23489;49.600;6.138;2023-03-14T09:14:33;9.20;99.90
37646;DHT22;23489;49.600;6.138;2023-03-14T09:16:59;9.10;99.90
37646;DHT22;23489;49.600;6.138;2023-03-14T09:19:25;9.00;99.90
37646;DHT22;23489;49.600;6.138;2023-03-14T09:21:50;8.90;99.90
37646;DHT22;23489;49.600;6.138;2023-03-14T09:24:17;8.80;99.90
37646;DHT22;23489;49.600;6.138;2023-03-14T09:26:42;8.80;99.90
37646;DHT22;23489;49.600;6.138;2023-03-14T09:29:08;8.80;99.90
37646;DHT22;23489;49.600;6.138;2023-03-14T09:31:34;8.80;99.90
37646;DHT22;23489;49.600;6.138;2023-03-14T09:34:01;8.90;99.90
37646;DHT22;23489;49.600;6.138;2023-03-14T09:36:26;8.90;99.90
37646;DHT22;23489;49.600;6.138;2023-03-14T09:38:52;8.90;99.90
37646;DHT22;23489;49.600;6.138;2023-03-14T09:41:23;8.70;99.90
37646;DHT22;23489;49.600;6.138;2023-03-14T09:44:14;8.70;99.90
37646;DHT22;23489;49.600;6.138;2023-03-14T09:46:43;8.50;99.90
37646;DHT22;23489;49.600;6.138;2023-03-14T09:49:31;8.40;99.90
37646;DHT22;23489;49.600;6.138;2023-03-14T09:52:00;8.30;99.90
37646;DHT22;23489;49.600;6.138;2023-03-14T09:54:47;8.30;99.90
37646;DHT22;23489;49.600;6.138;2023-03-14T09:57:18;8.90;99.90
37646;DHT22;23489;49.600;6.138;2023-03-14T09:59:46;8.70;99.90
37646;DHT22;23489;49.600;6.138;2023-03-14T10:02:21;8.50;99.90
37646;DHT22;23489;49.600;6.138;2023-03-14T10:04:49;8.20;99.90
37646;DHT22;23489;49.600;6.138;2023-03-14T10:07:29;8.00;99.90
37646;DHT22;23489;49.600;6.138;2023-03-14T10:09:56;7.60;99.90
37646;DHT22;23489;49.600;6.138;2023-03-14T10:12:32;7.40;99.90
37646;DHT22;23489;49.600;6.138;2023-03-14T10:15:06;7.50;99.90
37646;DHT22;23489;49.600;6.138;2023-03-14T10:17:42;7.60;99.90
37646;DHT22;23489;49.600;6.138;2023-03-14T10:22:53;7.90;99.90
37646;DHT22;23489;49.600;6.138;2023-03-14T10:25:28;8.00;99.90
37646;DHT22;23489;49.600;6.138;2023-03-14T10:27:54;8.20;99.90
37646;DHT22;23489;49.600;6.138;2023-03-14T10:30:39;8.50;99.90
37646;DHT22;23489;49.600;6.138;2023-03-14T10:33:23;9.40;99.90
37646;DHT22;23489;49.600;6.138;2023-03-14T10:36:03;10.40;99.90
37646;DHT22;23489;49.600;6.138;2023-03-14T10:38:32;10.10;99.90
37646;DHT22;23489;49.600;6.138;2023-03-14T10:40:58;10.10;99.90
37646;DHT22;23489;49.600;6.138;2023-03-14T10:43:35;10.60;99.90
37646;DHT22;23489;49.600;6.138;2023-03-14T10:46:15;11.30;99.90
37646;DHT22;23489;49.600;6.138;2023-03-14T10:49:04;11.30;99.90
37646;DHT22;23489;49.600;6.138;2023-03-14T10:51:30;11.00;99.90
37646;DHT22;23489;49.600;6.138;2023-03-14T10:53:58;10.60;99.90
37646;DHT22;23489;49.600;6.138;2023-03-14T10:56:25;10.50;99.90
37646;DHT22;23489;49.600;6.138;2023-03-14T10:58:54;10.10;99.90
37646;DHT22;23489;49.600;6.138;2023-03-14T11:01:43;10.00;99.90
37646;DHT22;23489;49.600;6.138;2023-03-14T11:07:08;9.40;99.90
37646;DHT22;23489;49.600;6.138;2023-03-14T11:14:48;9.20;99.90
37646;DHT22;23489;49.600;6.138;2023-03-14T11:17:24;9.40;99.90
37646;DHT22;23489;49.600;6.138;2023-03-14T11:20:49;9.30;99.90
37646;DHT22;23489;49.600;6.138;2023-03-14T11:23:17;9.20;99.90
37646;DHT22;23489;49.600;6.138;2023-03-14T11:25:48;8.70;99.90
37646;DHT22;23489;49.600;6.138;2023-03-14T11:28:18;8.50;99.90
37646;DHT22;23489;49.600;6.138;2023-03-14T11:30:54;8.30;99.90
37646;DHT22;23489;49.600;6.138;2023-03-14T11:33:27;8.40;99.90
37646;DHT22;23489;49.600;6.138;2023-03-14T11:36:03;8.70;99.90
37646;DHT22;23489;49.600;6.138;2023-03-14T11:38:38;9.00;99.90
37646;DHT22;23489;49.600;6.138;2023-03-14T11:41:12;8.90;99.90
37646;DHT22;23489;49.600;6.138;2023-03-14T11:43:40;9.00;99.90
37646;DHT22;23489;49.600;6.138;2023-03-14T11:46:21;9.30;99.90
37646;DHT22;23489;49.600;6.138;2023-03-14T11:51:25;9.30;99.90
37646;DHT22;23489;49.600;6.138;2023-03-14T11:54:14;9.10;99.90
37646;DHT22;23489;49.600;6.138;2023-03-14T11:59:27;9.00;99.90
37646;DHT22;23489;49.600;6.138;2023-03-14T12:01:58;8.90;99.90
37646;DHT22;23489;49.600;6.138;2023-03-14T12:09:45;9.10;99.90
37646;DHT22;23489;49.600;6.138;2023-03-14T12:12:15;9.10;99.90
37646;DHT22;23489;49.600;6.138;2023-03-14T12:14:53;9.40;99.90
37646;DHT22;23489;49.600;6.138;2023-03-14T12:17:26;9.30;99.90
37646;DHT22;23489;49.600;6.138;2023-03-14T12:20:17;9.50;99.90
37646;DHT22;23489;49.600;6.138;2023-03-14T12:22:50;9.60;99.90
37646;DHT22;23489;49.600;6.138;2023-03-14T12:25:24;9.30;99.90
37646;DHT22;23489;49.600;6.138;2023-03-14T12:30:35;9.40;99.90
37646;DHT22;23489;49.600;6.138;2023-03-14T12:35:38;9.50;99.90
37646;DHT22;23489;49.600;6.138;2023-03-14T12:38:09;9.60;99.90
37646;DHT22;23489;49.600;6.138;2023-03-14T12:40:58;9.90;99.90
37646;DHT22;23489;49.600;6.138;2023-03-14T12:43:31;10.10;99.90
37646;DHT22;23489;49.600;6.138;2023-03-14T12:49:08;9.70;99.90
37646;DHT22;23489;49.600;6.138;2023-03-14T12:51:36;9.90;99.90
37646;DHT22;23489;49.600;6.138;2023-03-14T12:56:49;9.80;99.90
37646;DHT22;23489;49.600;6.138;2023-03-14T12:59:38;9.90;99.90
37646;DHT22;23489;49.600;6.138;2023-03-14T13:05:05;10.60;99.90
37646;DHT22;23489;49.600;6.138;2023-03-14T13:17:54;9.80;99.90
37646;DHT22;23489;49.600;6.138;2023-03-14T13:20:28;9.90;99.90
37646;DHT22;23489;49.600;6.138;2023-03-14T13:22:55;9.80;99.90
37646;DHT22;23489;49.600;6.138;2023-03-14T13:25:20;10.10;99.90
37646;DHT22;23489;49.600;6.138;2023-03-14T13:27:48;10.10;99.90
37646;DHT22;23489;49.600;6.138;2023-03-14T13:30:21;10.30;99.90
37646;DHT22;23489;49.600;6.138;2023-03-14T13:32:48;10.30;99.90
37646;DHT22;23489;49.600;6.138;2023-03-14T13:35:42;10.20;99.90
37646;DHT22;23489;49.600;6.138;2023-03-14T13:38:22;10.10;99.90
37646;DHT22;23489;49.600;6.138;2023-03-14T13:40:50;9.70;99.90
37646;DHT22;23489;49.600;6.138;2023-03-14T13:46:04;9.40;99.90
37646;DHT22;23489;49.600;6.138;2023-03-14T13:48:32;9.40;99.90
37646;DHT22;23489;49.600;6.138;2023-03-14T13:51:06;9.60;99.90
37646;DHT22;23489;49.600;6.138;2023-03-14T13:53:46;9.90;99.90
37646;DHT22;23489;49.600;6.138;2023-03-14T13:56:12;10.10;99.10
37646;DHT22;23489;49.600;6.138;2023-03-14T13:58:39;9.80;97.00
37646;DHT22;23489;49.600;6.138;2023-03-14T14:01:22;10.20;97.50
37646;DHT22;23489;49.600;6.138;2023-03-14T14:03:51;10.40;97.30
37646;DHT22;23489;49.600;6.138;2023-03-14T14:06:35;10.70;96.70
37646;DHT22;23489;49.600;6.138;2023-03-14T14:09:14;10.50;96.00
37646;DHT22;23489;49.600;6.138;2023-03-14T14:11:56;10.70;96.40
37646;DHT22;23489;49.600;6.138;2023-03-14T14:14:35;10.60;95.80
37646;DHT22;23489;49.600;6.138;2023-03-14T14:17:05;10.80;96.60
37646;DHT22;23489;49.600;6.138;2023-03-14T14:19:33;10.90;96.50
37646;DHT22;23489;49.600;6.138;2023-03-14T14:22:00;10.80;96.50
37646;DHT22;23489;49.600;6.138;2023-03-14T14:24:30;10.60;97.30
37646;DHT22;23489;49.600;6.138;2023-03-14T14:27:08;10.40;97.50
37646;DHT22;23489;49.600;6.138;2023-03-14T14:29:34;10.40;97.80
37646;DHT22;23489;49.600;6.138;2023-03-14T14:32:12;10.40;97.00
37646;DHT22;23489;49.600;6.138;2023-03-14T14:34:44;10.50;96.80
37646;DHT22;23489;49.600;6.138;2023-03-14T14:39:55;10.80;97.60
37646;DHT22;23489;49.600;6.138;2023-03-14T14:42:33;10.60;96.70
37646;DHT22;23489;49.600;6.138;2023-03-14T14:45:02;10.40;96.90
37646;DHT22;23489;49.600;6.138;2023-03-14T14:47:29;10.00;97.30
37646;DHT22;23489;49.600;6.138;2023-03-14T14:49:59;9.20;99.90
37646;DHT22;23489;49.600;6.138;2023-03-14T14:52:40;8.50;99.90
37646;DHT22;23489;49.600;6.138;2023-03-14T14:55:39;8.00;99.90
37646;DHT22;23489;49.600;6.138;2023-03-14T15:01:18;7.80;99.90
37646;DHT22;23489;49.600;6.138;2023-03-14T15:03:47;7.70;99.90
37646;DHT22;23489;49.600;6.138;2023-03-14T15:06:15;7.60;99.90
37646;DHT22;23489;49.600;6.138;2023-03-14T15:08:43;7.50;99.90
37646;DHT22;23489;49.600;6.138;2023-03-14T15:11:17;7.70;99.90
37646;DHT22;23489;49.600;6.138;2023-03-14T15:13:43;7.70;99.90
37646;DHT22;23489;49.600;6.138;2023-03-14T15:16:11;7.80;99.90
37646;DHT22;23489;49.600;6.138;2023-03-14T15:18:37;7.70;99.90
37646;DHT22;23489;49.600;6.138;2023-03-14T15:21:03;7.70;99.90
37646;DHT22;23489;49.600;6.138;2023-03-14T15:23:28;7.70;99.90
37646;DHT22;23489;49.600;6.138;2023-03-14T15:25:54;7.60;99.90
37646;DHT22;23489;49.600;6.138;2023-03-14T15:28:22;7.50;99.90
37646;DHT22;23489;49.600;6.138;2023-03-14T15:30:50;7.50;99.90
37646;DHT22;23489;49.600;6.138;2023-03-14T15:33:17;7.40;99.90
37646;DHT22;23489;49.600;6.138;2023-03-14T15:35:43;7.40;99.90
37646;DHT22;23489;49.600;6.138;2023-03-14T15:38:13;7.40;99.90
37646;DHT22;23489;49.600;6.138;2023-03-14T15:40:39;7.30;99.90
37646;DHT22;23489;49.600;6.138;2023-03-14T15:43:05;7.00;99.90
37646;DHT22;23489;49.600;6.138;2023-03-14T15:45:31;6.90;99.90
37646;DHT22;23489;49.600;6.138;2023-03-14T15:47:57;6.80;99.90
37646;DHT22;23489;49.600;6.138;2023-03-14T15:50:23;6.60;99.90
37646;DHT22;23489;49.600;6.138;2023-03-14T15:52:48;6.50;99.90
37646;DHT22;23489;49.600;6.138;2023-03-14T15:55:14;6.30;99.90
37646;DHT22;23489;49.600;6.138;2023-03-14T15:57:44;6.30;99.90
37646;DHT22;23489;49.600;6.138;2023-03-14T16:00:16;6.10;99.90
37646;DHT22;23489;49.600;6.138;2023-03-14T16:02:47;6.00;99.90
37646;DHT22;23489;49.600;6.138;2023-03-14T16:05:13;5.90;99.90
37646;DHT22;23489;49.600;6.138;2023-03-14T16:07:39;5.80;99.90
37646;DHT22;23489;49.600;6.138;2023-03-14T16:10:06;5.70;99.90
37646;DHT22;23489;49.600;6.138;2023-03-14T16:12:33;5.70;99.90
37646;DHT22;23489;49.600;6.138;2023-03-14T16:14:59;5.80;99.90
37646;DHT22;23489;49.600;6.138;2023-03-14T16:17:25;5.90;99.90
37646;DHT22;23489;49.600;6.138;2023-03-14T16:19:51;5.80;99.90
37646;DHT22;23489;49.600;6.138;2023-03-14T16:22:17;5.90;99.90
37646;DHT22;23489;49.600;6.138;2023-03-14T16:24:43;5.80;99.90
37646;DHT22;23489;49.600;6.138;2023-03-14T16:27:09;5.70;99.90
37646;DHT22;23489;49.600;6.138;2023-03-14T16:29:34;5.80;99.90
37646;DHT22;23489;49.600;6.138;2023-03-14T16:32:00;5.80;99.90
37646;DHT22;23489;49.600;6.138;2023-03-14T16:34:25;5.90;99.90
37646;DHT22;23489;49.600;6.138;2023-03-14T16:36:53;6.00;99.90
37646;DHT22;23489;49.600;6.138;2023-03-14T16:39:20;6.00;99.90
37646;DHT22;23489;49.600;6.138;2023-03-14T16:41:47;6.10;99.90
37646;DHT22;23489;49.600;6.138;2023-03-14T16:44:13;6.00;99.90
37646;DHT22;23489;49.600;6.138;2023-03-14T16:46:39;6.10;99.90
37646;DHT22;23489;49.600;6.138;2023-03-14T16:49:04;6.00;99.90
37646;DHT22;23489;49.600;6.138;2023-03-14T16:51:31;6.00;99.90
37646;DHT22;23489;49.600;6.138;2023-03-14T16:53:57;5.90;99.90
37646;DHT22;23489;49.600;6.138;2023-03-14T16:56:24;5.90;99.90
37646;DHT22;23489;49.600;6.138;2023-03-14T16:58:50;5.90;99.90
37646;DHT22;23489;49.600;6.138;2023-03-14T17:01:17;5.90;99.90
37646;DHT22;23489;49.600;6.138;2023-03-14T17:03:45;5.90;99.90